• Join FlightAware (Why Join?)
  • Login
  • US Flag 
09:12PM EDT


 

Airport Tracker/Info


-or-


 

Live Flight TrackerFlight Track Log ✈ UAL5855 ✈ 20-May-2013 ✈ KBUF - KORD

Flight Track Log - Related Links

Times and Time Zones

All times are in EDT time to prevent confusion due to time zone crossing. See the UAL5855 flight status page for this flight to view local times or setup timezone preferences in your user account.

Time Position Orientation Groundspeed Altitude Reporting Facility
EDT Latitude Longitude Course Direction KTS MPH feet Rate Location/Type
07:00PM 42.9167 -78.7500 210° Southwest 162 186 1,400  Level Buffalo TRACON
07:02PM 42.8200 -78.8253 210° Southwest 259 298 4,500 1,800 Climbing Cleveland Center
07:03PM 42.7578 -78.8583 201° Southwest 259 298 6,700 2,040 Climbing Cleveland Center
07:04PM 42.6936 -78.8883 199° South 262 302 8,600 1,740 Climbing Cleveland Center
07:05PM 42.6172 -78.9214 198° South 265 305 10,200 1,140 Climbing Cleveland Center
07:06PM 42.5322 -78.9603 199° South 283 326 10,900 1,080 Climbing Cleveland Center
07:07PM 42.4494 -78.9989 199° South 332 382 12,400 1,500 Climbing Cleveland Center
07:08PM 42.3603 -79.0433 200° South 345 397 13,900 1,500 Climbing Cleveland Center
07:09PM 42.2692 -79.0819 197° South 345 397 15,400 1,500 Climbing Cleveland Center
07:10PM 42.1886 -79.1456 210° Southwest 340 391 16,900 1,500 Climbing Cleveland Center
07:11PM 42.1525 -79.2583 247° West 315 362 18,400 1,440 Climbing Cleveland Center
07:12PM 42.1203 -79.3767 250° West 324 373 19,800 1,260 Climbing Cleveland Center
07:13PM 42.0925 -79.4975 253° West 332 382 21,000 600 Climbing Cleveland Center
07:14PM 42.0581 -79.6267 250° West 355 409 21,000  Level Cleveland Center
07:15PM 42.0197 -79.7697 250° West 382 440 21,000 720 Level Cleveland Center
07:16PM 41.9789 -79.9294 251° West 410 472 22,500 1,860 Climbing Cleveland Center
07:17PM 41.9442 -80.0583 250° West 402 463 24,800 1,740 Climbing Cleveland Center
07:18PM 41.9114 -80.1814 250° West 370 426 26,000 600 Climbing Cleveland Center
07:19PM 41.8742 -80.3183 250° West 370 426 26,000 660 Level Cleveland Center
07:20PM 41.8411 -80.4356 249° West 376 433 27,400 1,380 Climbing Cleveland Center
07:21PM 41.8078 -80.5664 251° West 376 433 28,800 1,440 Climbing Cleveland Center
07:22PM 41.7744 -80.6861 250° West 361 415 30,300 1,440 Climbing Cleveland Center
07:23PM 41.7408 -80.8058 249° West 353 406 31,700 1,380 Climbing Cleveland Center
07:24PM 41.7072 -80.9281 250° West 348 400 33,100 1,140 Climbing Cleveland Center
07:25PM 41.6733 -81.0472 249° West 348 400 34,000 780 Climbing Cleveland Center
07:26PM 41.6394 -81.1694 250° West 353 406 34,700 780 Climbing Cleveland Center
07:27PM 41.6033 -81.2994 250° West 347 399 35,600 600 Climbing Cleveland Center
07:28PM 41.5692 -81.4242 250° West 352 405 36,000 180 Climbing Cleveland Center
07:29PM 41.5328 -81.5567 250° West 364 419 36,000  Level Cleveland Center
07:30PM 41.4961 -81.6919 250° West 384 442 36,000  Level Cleveland Center
07:31PM 41.4547 -81.8408 250° West 417 480 36,000  Level Cleveland Center
07:32PM 41.4094 -81.9894 248° West 430 495 36,000  Level Cleveland Center
07:33PM 41.3658 -82.1353 248° West 422 486 36,000  Level Cleveland Center
07:34PM 41.3636 -82.2875 269° West 415 478 36,000  Level Cleveland Center
07:35PM 41.3756 -82.4483 276° West 426 490 36,000  Level Cleveland Center
07:36PM 41.3875 -82.6036 276° West 426 490 36,000  Level Cleveland Center
07:37PM 41.3972 -82.7644 275° West 432 497 36,000  Level Cleveland Center
07:38PM 41.4067 -82.9225 275° West 437 503 36,000  Level Cleveland Center
07:39PM 41.4178 -83.0836 275° West 443 510 36,000  Level Cleveland Center
07:40PM 41.4267 -83.2472 274° West 443 510 36,000  Level Cleveland Center
07:41PM 41.4353 -83.4056 274° West 443 510 36,000  Level Cleveland Center
07:42PM 41.4458 -83.5639 275° West 443 510 36,000  Level Cleveland Center
07:43PM 41.4353 -83.7242 265° West 438 504 36,000  Level Cleveland Center
07:44PM 41.3997 -83.8775 253° West 438 504 36,000 -240 Level Cleveland Center
07:46PM 41.3528 -84.1000 254° West 426 490 35,500 -600 Descending Chicago Center
07:47PM 41.3208 -84.2506 254° West 424 488 34,500 -780 Descending Chicago Center
07:48PM 41.2808 -84.4322 254° West 426 490 34,000 -300 Descending Chicago Center
07:49PM 41.2475 -84.5828 254° West 424 488 34,000  Level Chicago Center
07:50PM 41.2144 -84.7339 254° West 426 490 34,000  Level Chicago Center
07:51PM 41.1925 -84.8889 259° West 429 494 34,000 -120 Level Chicago Center
07:52PM 41.2025 -85.0458 275° West 424 488 33,800 -840 Descending Chicago Center
07:53PM 41.2156 -85.2025 276° West 425 489 32,300 -1,500 Descending Chicago Center
07:54PM 41.2292 -85.3628 276° West 430 495 30,700 -2,040 Descending Chicago Center
07:55PM 41.2442 -85.5522 276° West 428 493 28,100 -2,280 Descending Chicago Center
07:56PM 41.2564 -85.7056 276° West 418 481 26,000 -1,500 Descending Chicago Center
07:57PM 41.2692 -85.8639 276° West 424 488 25,000 -540 Descending Chicago Center
07:58PM 41.2822 -86.0233 276° West 431 496 25,000 -540 Level Chicago Center
07:59PM 41.3181 -86.1761 287° West 429 494 23,900 -1,380 Descending Chicago Center
08:00PM 41.3556 -86.3258 288° West 428 493 22,200 -1,620 Descending Chicago Center
08:01PM 41.3911 -86.4647 289° West 404 465 20,600 -1,860 Descending Chicago Center
08:02PM 41.4303 -86.6250 288° West 382 440 18,400 -1,860 Descending Chicago Center
08:03PM 41.4619 -86.7492 289° West 375 432 16,800 -1,800 Descending Chicago Center
08:04PM 41.4922 -86.8756 288° West 363 418 14,700 -2,040 Descending Chicago Center
08:05PM 41.5289 -87.0256 288° West 358 412 12,700 -1,320 Descending Chicago Center
08:06PM 41.5572 -87.1436 288° West 340 391 12,000 -420 Descending Chicago Center
08:07PM 41.5886 -87.2567 290° West 330 380 11,900 -780 Descending Chicago Center
08:08PM 41.6492 -87.3539 310° West 343 395 10,400 -1,200 Descending Chicago Center
08:09PM 41.7008 -87.4408 309° West 307 353 9,500 -1,380 Descending Chicago Center
08:11PM 41.7567 -87.5333 309° West 273 314 7,600 -1,260 Descending Chicago Center
08:12PM 41.8044 -87.6114 309° West 274 315 7,000 -300 Descending Chicago Center
08:13PM 41.8594 -87.6758 319° Northwest 278 320 7,000  Level Chicago Center
08:14PM 41.9394 -87.6731 North 290 334 7,000 -360 Level Chicago Center
08:15PM 42.0092 -87.6703 North 257 296 6,300 -1,200 Descending Chicago Center
08:16PM 42.0814 -87.7031 341° North 251 289 4,600 -1,560 Descending Chicago Center
08:17PM 42.1028 -87.7742 292° West 236 272 3,100 -1,200 Descending Chicago Center
08:18PM 42.0625 -87.8267 224° Southwest 214 246 2,200 -840 Descending Chicago Center
08:19PM 42.0281 -87.8636 219° Southwest 181 208 1,400 -780 Descending Chicago Center
08:19PM 42.0000 -87.8833 208° Southwest 125 144 900 -780 Descending Chicago TRACON